Jordanville, New York
Current Conditions -  °F | °C
As of 11:53 AM on Friday 24 Oct 2014 (Local Time) from KRME Reporting Station
Few Clouds Few Clouds  
Wind Chill: 55°   Ceiling: Unl
Heat Index: 55°   Visibility: 10mi
Dew Point: 44°   Wind: 10mph
Humidity: 67%   Direction: 280°W
Pressure: 29.9"   Gusts: NA
Location:  42.91°N, 74.95°W
Report Text: KRME 241553Z 28009KT 10SM FEW055 13/07 A2990 RMK AO2 SLP126 T01280067
Loading
Personal Weather Stations






























Interactive Weather Map
Tropical Storm Tracking
New forecast layout! Learn more

10-Day Weather Forecast

Advertisements
Track Severe Weather on mobile